<?xml version="1.0" encoding="UTF-8" standalone="no" ?>
<gpx xmlns="http://www.topografix.com/GPX/1/1" xmlns:xsi="http://www.w3.org/2001/XMLSchema-instance" xsi:schemaLocation="http://www.topografix.com/GPX/1/1 http://www.topografix.com/GPX/1/1/gpx.xsd" version="1.1" creator="VisuGPX - https://www.visugpx.com">
  <metadata>
    <name>Raccords des Ravins autour de La Citée De Pierres</name>
    <desc><![CDATA[Attention : Montpellier Le Vieux c'est privé ! et c'est payant en saison ...]]></desc>
  </metadata>
  <trk>
    <name><![CDATA[Raccord Le Bouxes / La Combe / La Millière]]></name>
    <desc><![CDATA[Deux portages , quelques poussages et du bois mort a couper]]></desc>
    <extensions>
      <line xmlns="http://www.topografix.com/GPX/gpx_style/0/2">
        <color>00FFFF</color>
        <width>4</width>
          <extensions>
            <sens>1</sens>
          </extensions>
      </line>
    </extensions>
    <trkseg>
      <trkpt lat="44.14073" lon="3.20308">
        <ele>752.5</ele>
        <time>2024-12-02T12:03:35.000Z</time>
      </trkpt>
      <trkpt lat="44.14064" lon="3.2031">
        <ele>750.5</ele>
        <time>2024-12-02T12:04:18.000Z</time>
      </trkpt>
      <trkpt lat="44.14059" lon="3.20322">
        <ele>751.8</ele>
        <time>2024-12-02T12:04:28.000Z</time>
      </trkpt>
      <trkpt lat="44.14061" lon="3.20335">
        <ele>752.1</ele>
        <time>2024-12-02T12:04:41.000Z</time>
      </trkpt>
      <trkpt lat="44.14062" lon="3.20348">
        <ele>751.2</ele>
        <time>2024-12-02T12:04:50.000Z</time>
      </trkpt>
      <trkpt lat="44.14069" lon="3.20355">
        <ele>798.5</ele>
      </trkpt>
      <trkpt lat="44.14075" lon="3.20348">
        <ele>749.6</ele>
        <time>2024-12-02T12:06:31.000Z</time>
      </trkpt>
      <trkpt lat="44.14084" lon="3.20352">
        <ele>748</ele>
        <time>2024-12-02T12:06:44.000Z</time>
      </trkpt>
      <trkpt lat="44.14091" lon="3.20359">
        <ele>745.8</ele>
        <time>2024-12-02T12:07:02.000Z</time>
      </trkpt>
      <trkpt lat="44.14087" lon="3.20371">
        <ele>744.8</ele>
        <time>2024-12-02T12:07:13.000Z</time>
      </trkpt>
      <trkpt lat="44.14087" lon="3.20384">
        <ele>744.6</ele>
        <time>2024-12-02T12:07:23.000Z</time>
      </trkpt>
      <trkpt lat="44.14086" lon="3.20397">
        <ele>744.6</ele>
        <time>2024-12-02T12:07:32.000Z</time>
      </trkpt>
      <trkpt lat="44.14078" lon="3.20405">
        <ele>744.8</ele>
        <time>2024-12-02T12:07:46.000Z</time>
      </trkpt>
      <trkpt lat="44.1407" lon="3.20411">
        <ele>745.2</ele>
        <time>2024-12-02T12:08:06.000Z</time>
      </trkpt>
      <trkpt lat="44.14071" lon="3.20424">
        <ele>745.6</ele>
        <time>2024-12-02T12:08:22.000Z</time>
      </trkpt>
      <trkpt lat="44.14067" lon="3.20436">
        <ele>746.3</ele>
        <time>2024-12-02T12:08:29.000Z</time>
      </trkpt>
      <trkpt lat="44.14068" lon="3.20449">
        <ele>747.1</ele>
        <time>2024-12-02T12:08:36.000Z</time>
      </trkpt>
      <trkpt lat="44.14067" lon="3.20463">
        <ele>747.9</ele>
        <time>2024-12-02T12:08:43.000Z</time>
      </trkpt>
      <trkpt lat="44.14065" lon="3.20477">
        <ele>748.9</ele>
        <time>2024-12-02T12:08:51.000Z</time>
      </trkpt>
      <trkpt lat="44.1406" lon="3.20489">
        <ele>749.4</ele>
        <time>2024-12-02T12:08:56.000Z</time>
      </trkpt>
      <trkpt lat="44.14057" lon="3.20503">
        <ele>749.6</ele>
        <time>2024-12-02T12:09:00.000Z</time>
      </trkpt>
      <trkpt lat="44.14053" lon="3.20517">
        <ele>749.5</ele>
        <time>2024-12-02T12:09:04.000Z</time>
      </trkpt>
      <trkpt lat="44.14052" lon="3.20532">
        <ele>748.9</ele>
        <time>2024-12-02T12:09:07.000Z</time>
      </trkpt>
      <trkpt lat="44.14048" lon="3.20547">
        <ele>747</ele>
        <time>2024-12-02T12:09:11.000Z</time>
      </trkpt>
      <trkpt lat="44.14046" lon="3.20561">
        <ele>745.4</ele>
        <time>2024-12-02T12:09:15.000Z</time>
      </trkpt>
      <trkpt lat="44.14042" lon="3.20575">
        <ele>743.4</ele>
        <time>2024-12-02T12:09:20.000Z</time>
      </trkpt>
      <trkpt lat="44.14037" lon="3.20588">
        <ele>741.2</ele>
        <time>2024-12-02T12:09:24.000Z</time>
      </trkpt>
      <trkpt lat="44.14033" lon="3.20604">
        <ele>739.3</ele>
        <time>2024-12-02T12:09:28.000Z</time>
      </trkpt>
      <trkpt lat="44.14027" lon="3.20614">
        <ele>737.9</ele>
        <time>2024-12-02T12:09:30.000Z</time>
      </trkpt>
      <trkpt lat="44.14021" lon="3.20626">
        <ele>736</ele>
        <time>2024-12-02T12:09:33.000Z</time>
      </trkpt>
      <trkpt lat="44.14018" lon="3.20641">
        <ele>733.1</ele>
        <time>2024-12-02T12:09:37.000Z</time>
      </trkpt>
      <trkpt lat="44.14014" lon="3.20654">
        <ele>730.2</ele>
        <time>2024-12-02T12:09:41.000Z</time>
      </trkpt>
      <trkpt lat="44.14012" lon="3.20668">
        <ele>727.6</ele>
        <time>2024-12-02T12:09:44.000Z</time>
      </trkpt>
      <trkpt lat="44.14006" lon="3.20682">
        <ele>723.7</ele>
        <time>2024-12-02T12:09:49.000Z</time>
      </trkpt>
      <trkpt lat="44.13998" lon="3.20693">
        <ele>721.8</ele>
        <time>2024-12-02T12:09:52.000Z</time>
      </trkpt>
      <trkpt lat="44.13997" lon="3.20708">
        <ele>719.2</ele>
        <time>2024-12-02T12:09:56.000Z</time>
      </trkpt>
      <trkpt lat="44.13995" lon="3.20722">
        <ele>716.3</ele>
        <time>2024-12-02T12:10:00.000Z</time>
      </trkpt>
      <trkpt lat="44.14" lon="3.20735">
        <ele>710.1</ele>
        <time>2024-12-02T12:10:08.000Z</time>
      </trkpt>
      <trkpt lat="44.14007" lon="3.20746">
        <ele>705.2</ele>
        <time>2024-12-02T12:10:14.000Z</time>
      </trkpt>
      <trkpt lat="44.14011" lon="3.20758">
        <ele>701.6</ele>
        <time>2024-12-02T12:10:18.000Z</time>
      </trkpt>
      <trkpt lat="44.14015" lon="3.20772">
        <ele>698.4</ele>
        <time>2024-12-02T12:10:22.000Z</time>
      </trkpt>
      <trkpt lat="44.1402" lon="3.20783">
        <ele>696.9</ele>
        <time>2024-12-02T12:10:24.000Z</time>
      </trkpt>
      <trkpt lat="44.14029" lon="3.20785">
        <ele>693</ele>
        <time>2024-12-02T12:10:30.000Z</time>
      </trkpt>
      <trkpt lat="44.14034" lon="3.20795">
        <ele>689</ele>
        <time>2024-12-02T12:10:38.000Z</time>
      </trkpt>
      <trkpt lat="44.14032" lon="3.2081">
        <ele>687.5</ele>
        <time>2024-12-02T12:10:41.000Z</time>
      </trkpt>
      <trkpt lat="44.1403" lon="3.20824">
        <ele>685.1</ele>
        <time>2024-12-02T12:10:46.000Z</time>
      </trkpt>
      <trkpt lat="44.14038" lon="3.20832">
        <ele>683.5</ele>
        <time>2024-12-02T12:10:50.000Z</time>
      </trkpt>
      <trkpt lat="44.14039" lon="3.20844">
        <ele>682</ele>
        <time>2024-12-02T12:10:54.000Z</time>
      </trkpt>
      <trkpt lat="44.14035" lon="3.20858">
        <ele>680.2</ele>
        <time>2024-12-02T12:11:00.000Z</time>
      </trkpt>
      <trkpt lat="44.14025" lon="3.20864">
        <ele>679.2</ele>
        <time>2024-12-02T12:11:04.000Z</time>
      </trkpt>
      <trkpt lat="44.14018" lon="3.20877">
        <ele>678.3</ele>
        <time>2024-12-02T12:11:08.000Z</time>
      </trkpt>
      <trkpt lat="44.14013" lon="3.20892">
        <ele>677.4</ele>
        <time>2024-12-02T12:11:11.000Z</time>
      </trkpt>
      <trkpt lat="44.14004" lon="3.20906">
        <ele>676.7</ele>
        <time>2024-12-02T12:11:14.000Z</time>
      </trkpt>
      <trkpt lat="44.13995" lon="3.20919">
        <ele>676</ele>
        <time>2024-12-02T12:11:17.000Z</time>
      </trkpt>
      <trkpt lat="44.13986" lon="3.20923">
        <ele>675.7</ele>
        <time>2024-12-02T12:11:19.000Z</time>
      </trkpt>
      <trkpt lat="44.13974" lon="3.20929">
        <ele>675.1</ele>
        <time>2024-12-02T12:11:22.000Z</time>
      </trkpt>
      <trkpt lat="44.13962" lon="3.20935">
        <ele>674.7</ele>
        <time>2024-12-02T12:11:24.000Z</time>
      </trkpt>
      <trkpt lat="44.13952" lon="3.20945">
        <ele>673.9</ele>
        <time>2024-12-02T12:11:26.000Z</time>
      </trkpt>
      <trkpt lat="44.13944" lon="3.20956">
        <ele>673.3</ele>
        <time>2024-12-02T12:11:28.000Z</time>
      </trkpt>
      <trkpt lat="44.13938" lon="3.20966">
        <ele>672.8</ele>
        <time>2024-12-02T12:11:30.000Z</time>
      </trkpt>
      <trkpt lat="44.13932" lon="3.2098">
        <ele>672.1</ele>
        <time>2024-12-02T12:11:33.000Z</time>
      </trkpt>
      <trkpt lat="44.13924" lon="3.20988">
        <ele>671.6</ele>
        <time>2024-12-02T12:11:36.000Z</time>
      </trkpt>
      <trkpt lat="44.13914" lon="3.20992">
        <ele>671.2</ele>
        <time>2024-12-02T12:11:40.000Z</time>
      </trkpt>
      <trkpt lat="44.13903" lon="3.20999">
        <ele>671.1</ele>
        <time>2024-12-02T12:11:45.000Z</time>
      </trkpt>
      <trkpt lat="44.13892" lon="3.2101">
        <ele>670.7</ele>
        <time>2024-12-02T12:11:48.000Z</time>
      </trkpt>
      <trkpt lat="44.13884" lon="3.21018">
        <ele>669.8</ele>
        <time>2024-12-02T12:11:50.000Z</time>
      </trkpt>
      <trkpt lat="44.13874" lon="3.21019">
        <ele>669</ele>
        <time>2024-12-02T12:11:52.000Z</time>
      </trkpt>
      <trkpt lat="44.13864" lon="3.21015">
        <ele>668.4</ele>
        <time>2024-12-02T12:11:54.000Z</time>
      </trkpt>
      <trkpt lat="44.13856" lon="3.21004">
        <ele>667.7</ele>
        <time>2024-12-02T12:11:56.000Z</time>
      </trkpt>
      <trkpt lat="44.13847" lon="3.20998">
        <ele>667.1</ele>
        <time>2024-12-02T12:11:58.000Z</time>
      </trkpt>
      <trkpt lat="44.13837" lon="3.20992">
        <ele>666.4</ele>
        <time>2024-12-02T12:12:01.000Z</time>
      </trkpt>
      <trkpt lat="44.13826" lon="3.21">
        <ele>665.4</ele>
        <time>2024-12-02T12:12:05.000Z</time>
      </trkpt>
      <trkpt lat="44.13818" lon="3.21009">
        <ele>665</ele>
        <time>2024-12-02T12:12:07.000Z</time>
      </trkpt>
      <trkpt lat="44.13809" lon="3.21017">
        <ele>664.2</ele>
        <time>2024-12-02T12:12:10.000Z</time>
      </trkpt>
      <trkpt lat="44.13802" lon="3.21028">
        <ele>662.5</ele>
        <time>2024-12-02T12:13:26.000Z</time>
      </trkpt>
      <trkpt lat="44.13795" lon="3.21037">
        <ele>662.9</ele>
        <time>2024-12-02T12:13:31.000Z</time>
      </trkpt>
      <trkpt lat="44.13786" lon="3.21041">
        <ele>664</ele>
        <time>2024-12-02T12:13:44.000Z</time>
      </trkpt>
      <trkpt lat="44.13778" lon="3.21046">
        <ele>665.2</ele>
        <time>2024-12-02T12:13:53.000Z</time>
      </trkpt>
      <trkpt lat="44.13787" lon="3.21047">
        <ele>667.1</ele>
        <time>2024-12-02T12:14:14.000Z</time>
      </trkpt>
      <trkpt lat="44.13797" lon="3.21041">
        <ele>666.8</ele>
        <time>2024-12-02T12:14:29.000Z</time>
      </trkpt>
      <trkpt lat="44.13804" lon="3.21032">
        <ele>666.5</ele>
        <time>2024-12-02T12:14:33.000Z</time>
      </trkpt>
      <trkpt lat="44.13794" lon="3.21028">
        <ele>666</ele>
        <time>2024-12-02T12:14:39.000Z</time>
      </trkpt>
      <trkpt lat="44.13786" lon="3.21019">
        <ele>665.8</ele>
        <time>2024-12-02T12:14:43.000Z</time>
      </trkpt>
      <trkpt lat="44.13786" lon="3.21005">
        <ele>665.9</ele>
        <time>2024-12-02T12:14:49.000Z</time>
      </trkpt>
      <trkpt lat="44.13789" lon="3.20989">
        <ele>665.9</ele>
        <time>2024-12-02T12:14:52.000Z</time>
      </trkpt>
      <trkpt lat="44.13793" lon="3.20976">
        <ele>665.6</ele>
        <time>2024-12-02T12:14:54.000Z</time>
      </trkpt>
      <trkpt lat="44.13798" lon="3.20964">
        <ele>665.4</ele>
        <time>2024-12-02T12:14:58.000Z</time>
      </trkpt>
      <trkpt lat="44.13798" lon="3.20951">
        <ele>665.5</ele>
        <time>2024-12-02T12:15:04.000Z</time>
      </trkpt>
      <trkpt lat="44.13802" lon="3.20938">
        <ele>665.6</ele>
        <time>2024-12-02T12:15:08.000Z</time>
      </trkpt>
      <trkpt lat="44.13802" lon="3.20923">
        <ele>666.2</ele>
        <time>2024-12-02T12:15:15.000Z</time>
      </trkpt>
      <trkpt lat="44.13804" lon="3.20909">
        <ele>667</ele>
        <time>2024-12-02T12:15:23.000Z</time>
      </trkpt>
      <trkpt lat="44.13802" lon="3.20896">
        <ele>667.9</ele>
        <time>2024-12-02T12:15:30.000Z</time>
      </trkpt>
      <trkpt lat="44.13799" lon="3.20884">
        <ele>674.8</ele>
        <time>2024-12-02T12:16:10.000Z</time>
      </trkpt>
      <trkpt lat="44.1379" lon="3.20879">
        <ele>715.5</ele>
        <time>2024-12-02T12:19:12.000Z</time>
      </trkpt>
      <trkpt lat="44.13758" lon="3.20861">
        <ele>718</ele>
        <time>2024-12-02T12:19:25.000Z</time>
      </trkpt>
      <trkpt lat="44.13744" lon="3.20859">
        <ele>719.8</ele>
        <time>2024-12-02T12:19:34.000Z</time>
      </trkpt>
      <trkpt lat="44.13733" lon="3.20858">
        <ele>721.2</ele>
        <time>2024-12-02T12:19:41.000Z</time>
      </trkpt>
      <trkpt lat="44.13722" lon="3.20854">
        <ele>721.9</ele>
        <time>2024-12-02T12:19:45.000Z</time>
      </trkpt>
      <trkpt lat="44.13713" lon="3.20851">
        <ele>724</ele>
        <time>2024-12-02T12:19:55.000Z</time>
      </trkpt>
      <trkpt lat="44.13704" lon="3.20848">
        <ele>726.8</ele>
        <time>2024-12-02T12:20:10.000Z</time>
      </trkpt>
      <trkpt lat="44.13695" lon="3.20851">
        <ele>729.7</ele>
        <time>2024-12-02T12:20:29.000Z</time>
      </trkpt>
      <trkpt lat="44.13686" lon="3.2085">
        <ele>730.7</ele>
        <time>2024-12-02T12:20:38.000Z</time>
      </trkpt>
      <trkpt lat="44.1368" lon="3.2086">
        <ele>731.8</ele>
        <time>2024-12-02T12:20:48.000Z</time>
      </trkpt>
      <trkpt lat="44.1367" lon="3.20863">
        <ele>733.5</ele>
        <time>2024-12-02T12:21:02.000Z</time>
      </trkpt>
      <trkpt lat="44.13662" lon="3.20867">
        <ele>735.3</ele>
        <time>2024-12-02T12:21:17.000Z</time>
      </trkpt>
      <trkpt lat="44.13652" lon="3.2087">
        <ele>736.5</ele>
        <time>2024-12-02T12:21:25.000Z</time>
      </trkpt>
      <trkpt lat="44.13643" lon="3.20869">
        <ele>737.7</ele>
        <time>2024-12-02T12:21:32.000Z</time>
      </trkpt>
      <trkpt lat="44.13634" lon="3.2087">
        <ele>739.1</ele>
        <time>2024-12-02T12:21:41.000Z</time>
      </trkpt>
      <trkpt lat="44.13625" lon="3.20873">
        <ele>740.6</ele>
        <time>2024-12-02T12:21:50.000Z</time>
      </trkpt>
      <trkpt lat="44.13616" lon="3.20879">
        <ele>741.6</ele>
        <time>2024-12-02T12:21:56.000Z</time>
      </trkpt>
      <trkpt lat="44.13607" lon="3.20882">
        <ele>743.7</ele>
        <time>2024-12-02T12:22:06.000Z</time>
      </trkpt>
      <trkpt lat="44.13598" lon="3.20884">
        <ele>745.5</ele>
        <time>2024-12-02T12:22:16.000Z</time>
      </trkpt>
      <trkpt lat="44.13589" lon="3.2089">
        <ele>747.3</ele>
        <time>2024-12-02T12:22:27.000Z</time>
      </trkpt>
      <trkpt lat="44.1358" lon="3.20894">
        <ele>748.6</ele>
        <time>2024-12-02T12:22:37.000Z</time>
      </trkpt>
      <trkpt lat="44.1357" lon="3.20898">
        <ele>749.5</ele>
        <time>2024-12-02T12:22:44.000Z</time>
      </trkpt>
      <trkpt lat="44.13561" lon="3.20903">
        <ele>750.1</ele>
        <time>2024-12-02T12:22:50.000Z</time>
      </trkpt>
      <trkpt lat="44.13552" lon="3.20905">
        <ele>750.5</ele>
        <time>2024-12-02T12:22:55.000Z</time>
      </trkpt>
      <trkpt lat="44.13542" lon="3.20908">
        <ele>750.8</ele>
        <time>2024-12-02T12:23:01.000Z</time>
      </trkpt>
      <trkpt lat="44.13532" lon="3.20912">
        <ele>751.6</ele>
        <time>2024-12-02T12:23:09.000Z</time>
      </trkpt>
      <trkpt lat="44.13523" lon="3.20914">
        <ele>753.1</ele>
        <time>2024-12-02T12:23:19.000Z</time>
      </trkpt>
      <trkpt lat="44.13514" lon="3.20917">
        <ele>755.8</ele>
        <time>2024-12-02T12:23:38.000Z</time>
      </trkpt>
      <trkpt lat="44.13507" lon="3.20924">
        <ele>758.4</ele>
        <time>2024-12-02T12:23:55.000Z</time>
      </trkpt>
      <trkpt lat="44.13498" lon="3.20928">
        <ele>761.6</ele>
        <time>2024-12-02T12:24:12.000Z</time>
      </trkpt>
      <trkpt lat="44.13487" lon="3.20928">
        <ele>762.7</ele>
        <time>2024-12-02T12:24:21.000Z</time>
      </trkpt>
      <trkpt lat="44.13478" lon="3.20931">
        <ele>763.4</ele>
        <time>2024-12-02T12:24:29.000Z</time>
      </trkpt>
      <trkpt lat="44.13468" lon="3.20929">
        <ele>764</ele>
        <time>2024-12-02T12:24:36.000Z</time>
      </trkpt>
      <trkpt lat="44.13459" lon="3.20931">
        <ele>764.6</ele>
        <time>2024-12-02T12:24:43.000Z</time>
      </trkpt>
      <trkpt lat="44.1345" lon="3.20937">
        <ele>765.5</ele>
        <time>2024-12-02T12:24:50.000Z</time>
      </trkpt>
      <trkpt lat="44.13442" lon="3.20942">
        <ele>766.7</ele>
        <time>2024-12-02T12:24:58.000Z</time>
      </trkpt>
      <trkpt lat="44.13433" lon="3.2095">
        <ele>768.1</ele>
        <time>2024-12-02T12:25:06.000Z</time>
      </trkpt>
      <trkpt lat="44.13425" lon="3.20955">
        <ele>769.1</ele>
        <time>2024-12-02T12:25:13.000Z</time>
      </trkpt>
      <trkpt lat="44.13415" lon="3.20959">
        <ele>770.2</ele>
        <time>2024-12-02T12:25:20.000Z</time>
      </trkpt>
      <trkpt lat="44.13407" lon="3.20965">
        <ele>771.1</ele>
        <time>2024-12-02T12:25:28.000Z</time>
      </trkpt>
      <trkpt lat="44.13399" lon="3.20973">
        <ele>771.6</ele>
        <time>2024-12-02T12:25:34.000Z</time>
      </trkpt>
      <trkpt lat="44.13392" lon="3.20983">
        <ele>772.1</ele>
        <time>2024-12-02T12:25:40.000Z</time>
      </trkpt>
      <trkpt lat="44.13382" lon="3.20987">
        <ele>772.8</ele>
        <time>2024-12-02T12:25:47.000Z</time>
      </trkpt>
      <trkpt lat="44.13372" lon="3.20986">
        <ele>773.4</ele>
        <time>2024-12-02T12:25:55.000Z</time>
      </trkpt>
      <trkpt lat="44.13363" lon="3.20986">
        <ele>774.1</ele>
        <time>2024-12-02T12:26:02.000Z</time>
      </trkpt>
      <trkpt lat="44.13353" lon="3.20991">
        <ele>774.3</ele>
        <time>2024-12-02T12:26:07.000Z</time>
      </trkpt>
      <trkpt lat="44.13344" lon="3.21004">
        <ele>774.3</ele>
        <time>2024-12-02T12:26:10.000Z</time>
      </trkpt>
      <trkpt lat="44.13335" lon="3.21009">
        <ele>774.1</ele>
        <time>2024-12-02T12:26:13.000Z</time>
      </trkpt>
      <trkpt lat="44.13325" lon="3.2101">
        <ele>773.9</ele>
        <time>2024-12-02T12:26:17.000Z</time>
      </trkpt>
      <trkpt lat="44.13314" lon="3.21009">
        <ele>773.7</ele>
        <time>2024-12-02T12:26:23.000Z</time>
      </trkpt>
      <trkpt lat="44.13305" lon="3.21005">
        <ele>773.7</ele>
        <time>2024-12-02T12:26:26.000Z</time>
      </trkpt>
      <trkpt lat="44.13295" lon="3.20999">
        <ele>773.7</ele>
        <time>2024-12-02T12:26:31.000Z</time>
      </trkpt>
      <trkpt lat="44.13287" lon="3.2099">
        <ele>773.7</ele>
        <time>2024-12-02T12:26:35.000Z</time>
      </trkpt>
      <trkpt lat="44.13284" lon="3.20978">
        <ele>773.7</ele>
        <time>2024-12-02T12:26:40.000Z</time>
      </trkpt>
      <trkpt lat="44.13275" lon="3.2097">
        <ele>773.9</ele>
        <time>2024-12-02T12:26:48.000Z</time>
      </trkpt>
      <trkpt lat="44.13267" lon="3.20959">
        <ele>774</ele>
        <time>2024-12-02T12:26:54.000Z</time>
      </trkpt>
      <trkpt lat="44.13259" lon="3.20952">
        <ele>774.2</ele>
        <time>2024-12-02T12:27:00.000Z</time>
      </trkpt>
      <trkpt lat="44.13251" lon="3.20944">
        <ele>774.3</ele>
        <time>2024-12-02T12:27:04.000Z</time>
      </trkpt>
      <trkpt lat="44.13253" lon="3.20931">
        <ele>773.9</ele>
        <time>2024-12-02T12:27:10.000Z</time>
      </trkpt>
      <trkpt lat="44.1326" lon="3.20921">
        <ele>770.7</ele>
        <time>2024-12-02T12:29:59.000Z</time>
      </trkpt>
      <trkpt lat="44.13256" lon="3.20909">
        <ele>769.5</ele>
        <time>2024-12-02T12:30:03.000Z</time>
      </trkpt>
      <trkpt lat="44.13255" lon="3.20895">
        <ele>767.4</ele>
        <time>2024-12-02T12:30:09.000Z</time>
      </trkpt>
      <trkpt lat="44.13261" lon="3.20882">
        <ele>765.8</ele>
        <time>2024-12-02T12:30:13.000Z</time>
      </trkpt>
      <trkpt lat="44.13256" lon="3.20871">
        <ele>763.5</ele>
        <time>2024-12-02T12:30:18.000Z</time>
      </trkpt>
      <trkpt lat="44.13245" lon="3.20867">
        <ele>761.8</ele>
        <time>2024-12-02T12:30:22.000Z</time>
      </trkpt>
      <trkpt lat="44.13237" lon="3.20859">
        <ele>760</ele>
        <time>2024-12-02T12:30:26.000Z</time>
      </trkpt>
      <trkpt lat="44.13231" lon="3.20847">
        <ele>758.4</ele>
        <time>2024-12-02T12:30:29.000Z</time>
      </trkpt>
      <trkpt lat="44.13223" lon="3.20842">
        <ele>757</ele>
        <time>2024-12-02T12:30:32.000Z</time>
      </trkpt>
      <trkpt lat="44.13214" lon="3.20839">
        <ele>755.3</ele>
        <time>2024-12-02T12:30:36.000Z</time>
      </trkpt>
      <trkpt lat="44.13203" lon="3.20836">
        <ele>753.8</ele>
        <time>2024-12-02T12:30:39.000Z</time>
      </trkpt>
      <trkpt lat="44.13194" lon="3.20832">
        <ele>751.6</ele>
        <time>2024-12-02T12:30:44.000Z</time>
      </trkpt>
      <trkpt lat="44.13188" lon="3.20842">
        <ele>750.5</ele>
        <time>2024-12-02T12:30:47.000Z</time>
      </trkpt>
      <trkpt lat="44.13179" lon="3.20846">
        <ele>749.1</ele>
        <time>2024-12-02T12:30:52.000Z</time>
      </trkpt>
      <trkpt lat="44.13168" lon="3.20842">
        <ele>747.1</ele>
        <time>2024-12-02T12:30:57.000Z</time>
      </trkpt>
      <trkpt lat="44.13156" lon="3.20846">
        <ele>745.2</ele>
        <time>2024-12-02T12:31:01.000Z</time>
      </trkpt>
      <trkpt lat="44.13146" lon="3.20851">
        <ele>743.8</ele>
        <time>2024-12-02T12:31:04.000Z</time>
      </trkpt>
      <trkpt lat="44.13136" lon="3.20849">
        <ele>742.3</ele>
        <time>2024-12-02T12:31:07.000Z</time>
      </trkpt>
      <trkpt lat="44.13127" lon="3.20838">
        <ele>740.4</ele>
        <time>2024-12-02T12:31:11.000Z</time>
      </trkpt>
      <trkpt lat="44.13117" lon="3.20838">
        <ele>737.5</ele>
        <time>2024-12-02T12:31:18.000Z</time>
      </trkpt>
      <trkpt lat="44.13109" lon="3.20835">
        <ele>735.6</ele>
        <time>2024-12-02T12:31:24.000Z</time>
      </trkpt>
      <trkpt lat="44.131" lon="3.20831">
        <ele>734.6</ele>
        <time>2024-12-02T12:31:28.000Z</time>
      </trkpt>
      <trkpt lat="44.13089" lon="3.20834">
        <ele>733.6</ele>
        <time>2024-12-02T12:31:32.000Z</time>
      </trkpt>
      <trkpt lat="44.13078" lon="3.20828">
        <ele>732.5</ele>
        <time>2024-12-02T12:31:37.000Z</time>
      </trkpt>
      <trkpt lat="44.13066" lon="3.20822">
        <ele>731.9</ele>
        <time>2024-12-02T12:31:40.000Z</time>
      </trkpt>
      <trkpt lat="44.13053" lon="3.20825">
        <ele>731.2</ele>
        <time>2024-12-02T12:31:43.000Z</time>
      </trkpt>
      <trkpt lat="44.13043" lon="3.20827">
        <ele>730.7</ele>
        <time>2024-12-02T12:31:45.000Z</time>
      </trkpt>
      <trkpt lat="44.13033" lon="3.20835">
        <ele>729.8</ele>
        <time>2024-12-02T12:31:48.000Z</time>
      </trkpt>
      <trkpt lat="44.13022" lon="3.20838">
        <ele>728.5</ele>
        <time>2024-12-02T12:31:53.000Z</time>
      </trkpt>
      <trkpt lat="44.13012" lon="3.20836">
        <ele>727.7</ele>
        <time>2024-12-02T12:31:56.000Z</time>
      </trkpt>
      <trkpt lat="44.13001" lon="3.20834">
        <ele>726.6</ele>
        <time>2024-12-02T12:32:00.000Z</time>
      </trkpt>
      <trkpt lat="44.1299" lon="3.20829">
        <ele>725.8</ele>
        <time>2024-12-02T12:32:03.000Z</time>
      </trkpt>
      <trkpt lat="44.12979" lon="3.20825">
        <ele>724.7</ele>
        <time>2024-12-02T12:32:07.000Z</time>
      </trkpt>
      <trkpt lat="44.12981" lon="3.2084">
        <ele>722.5</ele>
        <time>2024-12-02T12:32:13.000Z</time>
      </trkpt>
      <trkpt lat="44.12983" lon="3.20854">
        <ele>720.8</ele>
        <time>2024-12-02T12:32:17.000Z</time>
      </trkpt>
      <trkpt lat="44.12974" lon="3.20864">
        <ele>718.6</ele>
        <time>2024-12-02T12:32:22.000Z</time>
      </trkpt>
      <trkpt lat="44.12967" lon="3.20873">
        <ele>717.1</ele>
        <time>2024-12-02T12:32:25.000Z</time>
      </trkpt>
      <trkpt lat="44.12965" lon="3.20886">
        <ele>713.6</ele>
        <time>2024-12-02T12:32:33.000Z</time>
      </trkpt>
      <trkpt lat="44.12966" lon="3.20903">
        <ele>711.6</ele>
        <time>2024-12-02T12:32:38.000Z</time>
      </trkpt>
      <trkpt lat="44.12967" lon="3.20917">
        <ele>710</ele>
        <time>2024-12-02T12:32:42.000Z</time>
      </trkpt>
      <trkpt lat="44.1297" lon="3.2093">
        <ele>708.7</ele>
        <time>2024-12-02T12:32:46.000Z</time>
      </trkpt>
      <trkpt lat="44.12967" lon="3.20946">
        <ele>707.4</ele>
        <time>2024-12-02T12:32:51.000Z</time>
      </trkpt>
      <trkpt lat="44.12966" lon="3.20959">
        <ele>706.6</ele>
        <time>2024-12-02T12:32:54.000Z</time>
      </trkpt>
      <trkpt lat="44.12968" lon="3.20975">
        <ele>705.6</ele>
        <time>2024-12-02T12:32:57.000Z</time>
      </trkpt>
      <trkpt lat="44.12967" lon="3.20989">
        <ele>704.3</ele>
        <time>2024-12-02T12:33:00.000Z</time>
      </trkpt>
      <trkpt lat="44.12963" lon="3.21002">
        <ele>702.6</ele>
        <time>2024-12-02T12:33:03.000Z</time>
      </trkpt>
      <trkpt lat="44.12961" lon="3.21016">
        <ele>701.1</ele>
        <time>2024-12-02T12:33:06.000Z</time>
      </trkpt>
      <trkpt lat="44.12958" lon="3.21031">
        <ele>698.6</ele>
        <time>2024-12-02T12:33:11.000Z</time>
      </trkpt>
      <trkpt lat="44.12956" lon="3.21045">
        <ele>696.4</ele>
        <time>2024-12-02T12:33:15.000Z</time>
      </trkpt>
      <trkpt lat="44.12964" lon="3.21057">
        <ele>694.1</ele>
        <time>2024-12-02T12:33:19.000Z</time>
      </trkpt>
      <trkpt lat="44.12974" lon="3.21068">
        <ele>692.5</ele>
        <time>2024-12-02T12:33:22.000Z</time>
      </trkpt>
      <trkpt lat="44.12983" lon="3.21077">
        <ele>690.9</ele>
        <time>2024-12-02T12:33:25.000Z</time>
      </trkpt>
      <trkpt lat="44.12989" lon="3.21087">
        <ele>686.4</ele>
        <time>2024-12-02T12:33:34.000Z</time>
      </trkpt>
      <trkpt lat="44.12985" lon="3.21098">
        <ele>679.8</ele>
        <time>2024-12-02T12:33:52.000Z</time>
      </trkpt>
      <trkpt lat="44.12975" lon="3.21098">
        <ele>678.9</ele>
        <time>2024-12-02T12:33:55.000Z</time>
      </trkpt>
      <trkpt lat="44.12966" lon="3.21096">
        <ele>678.2</ele>
        <time>2024-12-02T12:33:57.000Z</time>
      </trkpt>
      <trkpt lat="44.12957" lon="3.21094">
        <ele>677.6</ele>
        <time>2024-12-02T12:33:59.000Z</time>
      </trkpt>
      <trkpt lat="44.12948" lon="3.21092">
        <ele>677</ele>
        <time>2024-12-02T12:34:01.000Z</time>
      </trkpt>
      <trkpt lat="44.12939" lon="3.21084">
        <ele>675.5</ele>
        <time>2024-12-02T12:34:05.000Z</time>
      </trkpt>
      <trkpt lat="44.12934" lon="3.21074">
        <ele>674</ele>
        <time>2024-12-02T12:34:08.000Z</time>
      </trkpt>
      <trkpt lat="44.12926" lon="3.21063">
        <ele>672.2</ele>
        <time>2024-12-02T12:34:11.000Z</time>
      </trkpt>
      <trkpt lat="44.12919" lon="3.21052">
        <ele>669.9</ele>
        <time>2024-12-02T12:34:15.000Z</time>
      </trkpt>
      <trkpt lat="44.12917" lon="3.21067">
        <ele>667.2</ele>
        <time>2024-12-02T12:34:20.000Z</time>
      </trkpt>
      <trkpt lat="44.1291" lon="3.21078">
        <ele>660.4</ele>
        <time>2024-12-02T12:34:33.000Z</time>
      </trkpt>
      <trkpt lat="44.12906" lon="3.2109">
        <ele>651</ele>
        <time>2024-12-02T12:35:29.000Z</time>
      </trkpt>
      <trkpt lat="44.12897" lon="3.21097">
        <ele>650.1</ele>
        <time>2024-12-02T12:35:32.000Z</time>
      </trkpt>
      <trkpt lat="44.12889" lon="3.21108">
        <ele>649.1</ele>
        <time>2024-12-02T12:35:35.000Z</time>
      </trkpt>
      <trkpt lat="44.1288" lon="3.21113">
        <ele>648</ele>
        <time>2024-12-02T12:35:38.000Z</time>
      </trkpt>
      <trkpt lat="44.12867" lon="3.21117">
        <ele>646.4</ele>
        <time>2024-12-02T12:35:42.000Z</time>
      </trkpt>
      <trkpt lat="44.12858" lon="3.21119">
        <ele>645.3</ele>
        <time>2024-12-02T12:35:45.000Z</time>
      </trkpt>
      <trkpt lat="44.12848" lon="3.21119">
        <ele>643.4</ele>
        <time>2024-12-02T12:35:50.000Z</time>
      </trkpt>
      <trkpt lat="44.12839" lon="3.21121">
        <ele>641</ele>
        <time>2024-12-02T12:35:55.000Z</time>
      </trkpt>
      <trkpt lat="44.12831" lon="3.21127">
        <ele>638.6</ele>
        <time>2024-12-02T12:36:00.000Z</time>
      </trkpt>
      <trkpt lat="44.12827" lon="3.21139">
        <ele>632.9</ele>
        <time>2024-12-02T12:36:11.000Z</time>
      </trkpt>
      <trkpt lat="44.12817" lon="3.21145">
        <ele>630.5</ele>
        <time>2024-12-02T12:36:15.000Z</time>
      </trkpt>
      <trkpt lat="44.12808" lon="3.21149">
        <ele>629.3</ele>
        <time>2024-12-02T12:36:17.000Z</time>
      </trkpt>
      <trkpt lat="44.12798" lon="3.21154">
        <ele>628.1</ele>
        <time>2024-12-02T12:36:19.000Z</time>
      </trkpt>
      <trkpt lat="44.12789" lon="3.21159">
        <ele>626.8</ele>
        <time>2024-12-02T12:36:21.000Z</time>
      </trkpt>
      <trkpt lat="44.12796" lon="3.21167">
        <ele>621.9</ele>
        <time>2024-12-02T12:36:30.000Z</time>
      </trkpt>
      <trkpt lat="44.12796" lon="3.2118">
        <ele>614</ele>
        <time>2024-12-02T12:37:02.000Z</time>
      </trkpt>
      <trkpt lat="44.12785" lon="3.21189">
        <ele>612.7</ele>
        <time>2024-12-02T12:37:09.000Z</time>
      </trkpt>
      <trkpt lat="44.12777" lon="3.21195">
        <ele>611.9</ele>
        <time>2024-12-02T12:37:12.000Z</time>
      </trkpt>
      <trkpt lat="44.12766" lon="3.21199">
        <ele>610.7</ele>
        <time>2024-12-02T12:37:15.000Z</time>
      </trkpt>
      <trkpt lat="44.12754" lon="3.21201">
        <ele>609.2</ele>
        <time>2024-12-02T12:37:18.000Z</time>
      </trkpt>
      <trkpt lat="44.12742" lon="3.21204">
        <ele>607.7</ele>
        <time>2024-12-02T12:37:21.000Z</time>
      </trkpt>
      <trkpt lat="44.12732" lon="3.21204">
        <ele>606.6</ele>
        <time>2024-12-02T12:37:23.000Z</time>
      </trkpt>
      <trkpt lat="44.1272" lon="3.21203">
        <ele>605</ele>
        <time>2024-12-02T12:37:26.000Z</time>
      </trkpt>
      <trkpt lat="44.1271" lon="3.21202">
        <ele>603.9</ele>
        <time>2024-12-02T12:37:28.000Z</time>
      </trkpt>
      <trkpt lat="44.12698" lon="3.21199">
        <ele>602.4</ele>
        <time>2024-12-02T12:37:31.000Z</time>
      </trkpt>
      <trkpt lat="44.12687" lon="3.21196">
        <ele>600</ele>
        <time>2024-12-02T12:37:35.000Z</time>
      </trkpt>
      <trkpt lat="44.12678" lon="3.21194">
        <ele>598.3</ele>
        <time>2024-12-02T12:37:38.000Z</time>
      </trkpt>
      <trkpt lat="44.12668" lon="3.2119">
        <ele>594.4</ele>
        <time>2024-12-02T12:37:44.000Z</time>
      </trkpt>
      <trkpt lat="44.12661" lon="3.21181">
        <ele>586.8</ele>
        <time>2024-12-02T12:38:13.000Z</time>
      </trkpt>
      <trkpt lat="44.12666" lon="3.2117">
        <ele>586.5</ele>
        <time>2024-12-02T12:38:24.000Z</time>
      </trkpt>
      <trkpt lat="44.12668" lon="3.21158">
        <ele>586.9</ele>
        <time>2024-12-02T12:38:33.000Z</time>
      </trkpt>
      <trkpt lat="44.12668" lon="3.21145">
        <ele>588.2</ele>
        <time>2024-12-02T12:38:54.000Z</time>
      </trkpt>
      <trkpt lat="44.12671" lon="3.2113">
        <ele>588.4</ele>
        <time>2024-12-02T12:38:59.000Z</time>
      </trkpt>
      <trkpt lat="44.12675" lon="3.21116">
        <ele>588.8</ele>
        <time>2024-12-02T12:39:06.000Z</time>
      </trkpt>
      <trkpt lat="44.12677" lon="3.21104">
        <ele>589.2</ele>
        <time>2024-12-02T12:39:13.000Z</time>
      </trkpt>
      <trkpt lat="44.12682" lon="3.21091">
        <ele>589</ele>
        <time>2024-12-02T12:39:24.000Z</time>
      </trkpt>
      <trkpt lat="44.12683" lon="3.21079">
        <ele>588.5</ele>
        <time>2024-12-02T12:39:31.000Z</time>
      </trkpt>
      <trkpt lat="44.12677" lon="3.21069">
        <ele>588</ele>
        <time>2024-12-02T12:39:35.000Z</time>
      </trkpt>
      <trkpt lat="44.12654" lon="3.21029">
        <ele>587</ele>
        <time>2024-12-02T12:39:43.000Z</time>
      </trkpt>
      <trkpt lat="44.12643" lon="3.21008">
        <ele>586.4</ele>
        <time>2024-12-02T12:39:48.000Z</time>
      </trkpt>
      <trkpt lat="44.12639" lon="3.20996">
        <ele>586.5</ele>
        <time>2024-12-02T12:39:54.000Z</time>
      </trkpt>
      <trkpt lat="44.12629" lon="3.20993">
        <ele>586.7</ele>
        <time>2024-12-02T12:40:00.000Z</time>
      </trkpt>
      <trkpt lat="44.12619" lon="3.20997">
        <ele>586.9</ele>
        <time>2024-12-02T12:40:06.000Z</time>
      </trkpt>
      <trkpt lat="44.12609" lon="3.20998">
        <ele>587</ele>
        <time>2024-12-02T12:40:11.000Z</time>
      </trkpt>
      <trkpt lat="44.126" lon="3.20997">
        <ele>587.1</ele>
        <time>2024-12-02T12:40:18.000Z</time>
      </trkpt>
      <trkpt lat="44.1259" lon="3.20993">
        <ele>587.3</ele>
        <time>2024-12-02T12:40:36.000Z</time>
      </trkpt>
      <trkpt lat="44.12581" lon="3.20989">
        <ele>587.2</ele>
        <time>2024-12-02T12:40:40.000Z</time>
      </trkpt>
      <trkpt lat="44.12575" lon="3.20979">
        <ele>587.2</ele>
        <time>2024-12-02T12:40:44.000Z</time>
      </trkpt>
      <trkpt lat="44.12566" lon="3.20975">
        <ele>587.4</ele>
        <time>2024-12-02T12:40:50.000Z</time>
      </trkpt>
      <trkpt lat="44.12557" lon="3.20969">
        <ele>587.8</ele>
        <time>2024-12-02T12:41:02.000Z</time>
      </trkpt>
      <trkpt lat="44.12549" lon="3.20963">
        <ele>587.9</ele>
        <time>2024-12-02T12:41:08.000Z</time>
      </trkpt>
      <trkpt lat="44.12543" lon="3.20953">
        <ele>587.8</ele>
        <time>2024-12-02T12:41:11.000Z</time>
      </trkpt>
      <trkpt lat="44.12536" lon="3.20941">
        <ele>587.6</ele>
        <time>2024-12-02T12:41:15.000Z</time>
      </trkpt>
      <trkpt lat="44.1253" lon="3.20931">
        <ele>587.4</ele>
        <time>2024-12-02T12:41:21.000Z</time>
      </trkpt>
      <trkpt lat="44.12528" lon="3.20917">
        <ele>586.8</ele>
        <time>2024-12-02T12:42:03.000Z</time>
      </trkpt>
      <trkpt lat="44.12531" lon="3.20905">
        <ele>587</ele>
        <time>2024-12-02T12:42:12.000Z</time>
      </trkpt>
      <trkpt lat="44.12535" lon="3.20894">
        <ele>588.3</ele>
        <time>2024-12-02T12:42:36.000Z</time>
      </trkpt>
      <trkpt lat="44.12545" lon="3.20891">
        <ele>590</ele>
        <time>2024-12-02T12:42:52.000Z</time>
      </trkpt>
      <trkpt lat="44.12549" lon="3.2088">
        <ele>592</ele>
        <time>2024-12-02T12:43:07.000Z</time>
      </trkpt>
      <trkpt lat="44.1255" lon="3.20866">
        <ele>594.9</ele>
        <time>2024-12-02T12:43:24.000Z</time>
      </trkpt>
      <trkpt lat="44.12548" lon="3.20853">
        <ele>596.7</ele>
        <time>2024-12-02T12:43:38.000Z</time>
      </trkpt>
      <trkpt lat="44.12542" lon="3.20841">
        <ele>598.8</ele>
        <time>2024-12-02T12:43:56.000Z</time>
      </trkpt>
      <trkpt lat="44.12537" lon="3.20831">
        <ele>601</ele>
        <time>2024-12-02T12:44:12.000Z</time>
      </trkpt>
      <trkpt lat="44.12537" lon="3.20817">
        <ele>603.3</ele>
        <time>2024-12-02T12:44:35.000Z</time>
      </trkpt>
      <trkpt lat="44.12536" lon="3.20803">
        <ele>603.9</ele>
        <time>2024-12-02T12:44:43.000Z</time>
      </trkpt>
      <trkpt lat="44.12537" lon="3.2079">
        <ele>605.1</ele>
        <time>2024-12-02T12:44:51.000Z</time>
      </trkpt>
      <trkpt lat="44.12535" lon="3.20777">
        <ele>606.1</ele>
        <time>2024-12-02T12:44:59.000Z</time>
      </trkpt>
      <trkpt lat="44.1253" lon="3.20764">
        <ele>606.6</ele>
        <time>2024-12-02T12:45:05.000Z</time>
      </trkpt>
      <trkpt lat="44.12526" lon="3.20751">
        <ele>607</ele>
        <time>2024-12-02T12:45:10.000Z</time>
      </trkpt>
      <trkpt lat="44.12523" lon="3.20738">
        <ele>607.5</ele>
        <time>2024-12-02T12:45:17.000Z</time>
      </trkpt>
      <trkpt lat="44.12521" lon="3.20723">
        <ele>607.6</ele>
        <time>2024-12-02T12:45:22.000Z</time>
      </trkpt>
      <trkpt lat="44.12522" lon="3.20709">
        <ele>607.5</ele>
        <time>2024-12-02T12:45:27.000Z</time>
      </trkpt>
      <trkpt lat="44.12523" lon="3.20695">
        <ele>606.9</ele>
        <time>2024-12-02T12:45:31.000Z</time>
      </trkpt>
      <trkpt lat="44.12528" lon="3.20681">
        <ele>606.2</ele>
        <time>2024-12-02T12:45:38.000Z</time>
      </trkpt>
      <trkpt lat="44.12529" lon="3.20669">
        <ele>605.9</ele>
        <time>2024-12-02T12:45:43.000Z</time>
      </trkpt>
      <trkpt lat="44.1253" lon="3.20654">
        <ele>605.6</ele>
        <time>2024-12-02T12:45:48.000Z</time>
      </trkpt>
      <trkpt lat="44.12532" lon="3.20641">
        <ele>605.8</ele>
        <time>2024-12-02T12:45:53.000Z</time>
      </trkpt>
      <trkpt lat="44.12535" lon="3.20626">
        <ele>605.8</ele>
        <time>2024-12-02T12:45:59.000Z</time>
      </trkpt>
      <trkpt lat="44.12538" lon="3.20614">
        <ele>605.3</ele>
        <time>2024-12-02T12:46:03.000Z</time>
      </trkpt>
      <trkpt lat="44.12545" lon="3.206">
        <ele>604.8</ele>
        <time>2024-12-02T12:46:07.000Z</time>
      </trkpt>
      <trkpt lat="44.12543" lon="3.20586">
        <ele>604.4</ele>
        <time>2024-12-02T12:46:12.000Z</time>
      </trkpt>
      <trkpt lat="44.12539" lon="3.20574">
        <ele>604.1</ele>
        <time>2024-12-02T12:46:18.000Z</time>
      </trkpt>
      <trkpt lat="44.12534" lon="3.20562">
        <ele>604.4</ele>
        <time>2024-12-02T12:46:24.000Z</time>
      </trkpt>
      <trkpt lat="44.12531" lon="3.20549">
        <ele>604.9</ele>
        <time>2024-12-02T12:46:31.000Z</time>
      </trkpt>
      <trkpt lat="44.1253" lon="3.20535">
        <ele>605.8</ele>
        <time>2024-12-02T12:46:40.000Z</time>
      </trkpt>
      <trkpt lat="44.12526" lon="3.20523">
        <ele>607.1</ele>
        <time>2024-12-02T12:46:49.000Z</time>
      </trkpt>
      <trkpt lat="44.12524" lon="3.2051">
        <ele>608.7</ele>
        <time>2024-12-02T12:47:00.000Z</time>
      </trkpt>
      <trkpt lat="44.1253" lon="3.205">
        <ele>610.2</ele>
        <time>2024-12-02T12:47:09.000Z</time>
      </trkpt>
      <trkpt lat="44.12537" lon="3.2049">
        <ele>610.8</ele>
        <time>2024-12-02T12:47:15.000Z</time>
      </trkpt>
      <trkpt lat="44.12545" lon="3.20481">
        <ele>611.2</ele>
        <time>2024-12-02T12:47:22.000Z</time>
      </trkpt>
      <trkpt lat="44.12553" lon="3.20474">
        <ele>611.4</ele>
        <time>2024-12-02T12:47:28.000Z</time>
      </trkpt>
      <trkpt lat="44.12559" lon="3.20463">
        <ele>611.4</ele>
        <time>2024-12-02T12:47:32.000Z</time>
      </trkpt>
      <trkpt lat="44.12563" lon="3.20451">
        <ele>611.5</ele>
        <time>2024-12-02T12:47:36.000Z</time>
      </trkpt>
      <trkpt lat="44.12568" lon="3.20438">
        <ele>611.2</ele>
        <time>2024-12-02T12:47:40.000Z</time>
      </trkpt>
      <trkpt lat="44.1257" lon="3.20424">
        <ele>611.6</ele>
        <time>2024-12-02T12:47:45.000Z</time>
      </trkpt>
      <trkpt lat="44.12572" lon="3.20411">
        <ele>611.9</ele>
        <time>2024-12-02T12:47:51.000Z</time>
      </trkpt>
      <trkpt lat="44.12576" lon="3.204">
        <ele>612.6</ele>
        <time>2024-12-02T12:47:58.000Z</time>
      </trkpt>
      <trkpt lat="44.12582" lon="3.20388">
        <ele>613.4</ele>
        <time>2024-12-02T12:48:05.000Z</time>
      </trkpt>
      <trkpt lat="44.12588" lon="3.20378">
        <ele>613.8</ele>
        <time>2024-12-02T12:48:10.000Z</time>
      </trkpt>
      <trkpt lat="44.12593" lon="3.20367">
        <ele>614.1</ele>
        <time>2024-12-02T12:48:16.000Z</time>
      </trkpt>
      <trkpt lat="44.12593" lon="3.20352">
        <ele>614.1</ele>
        <time>2024-12-02T12:48:20.000Z</time>
      </trkpt>
      <trkpt lat="44.12596" lon="3.20339">
        <ele>614</ele>
        <time>2024-12-02T12:48:26.000Z</time>
      </trkpt>
      <trkpt lat="44.12598" lon="3.20327">
        <ele>614.3</ele>
        <time>2024-12-02T12:48:33.000Z</time>
      </trkpt>
      <trkpt lat="44.12602" lon="3.20314">
        <ele>615</ele>
        <time>2024-12-02T12:48:40.000Z</time>
      </trkpt>
      <trkpt lat="44.12607" lon="3.20302">
        <ele>616.5</ele>
        <time>2024-12-02T12:48:49.000Z</time>
      </trkpt>
      <trkpt lat="44.12606" lon="3.20289">
        <ele>617.5</ele>
        <time>2024-12-02T12:48:56.000Z</time>
      </trkpt>
      <trkpt lat="44.12606" lon="3.20277">
        <ele>618.6</ele>
        <time>2024-12-02T12:49:04.000Z</time>
      </trkpt>
      <trkpt lat="44.12607" lon="3.20264">
        <ele>620.8</ele>
        <time>2024-12-02T12:49:15.000Z</time>
      </trkpt>
      <trkpt lat="44.12608" lon="3.20249">
        <ele>622.9</ele>
        <time>2024-12-02T12:49:42.000Z</time>
      </trkpt>
      <trkpt lat="44.12613" lon="3.20238">
        <ele>623.4</ele>
        <time>2024-12-02T12:49:50.000Z</time>
      </trkpt>
      <trkpt lat="44.12622" lon="3.20235">
        <ele>623.7</ele>
        <time>2024-12-02T12:49:58.000Z</time>
      </trkpt>
      <trkpt lat="44.12632" lon="3.20235">
        <ele>624</ele>
        <time>2024-12-02T12:50:06.000Z</time>
      </trkpt>
      <trkpt lat="44.1264" lon="3.20242">
        <ele>625.5</ele>
        <time>2024-12-02T12:50:17.000Z</time>
      </trkpt>
      <trkpt lat="44.1265" lon="3.20243">
        <ele>626.7</ele>
        <time>2024-12-02T12:50:25.000Z</time>
      </trkpt>
      <trkpt lat="44.1266" lon="3.20244">
        <ele>627.4</ele>
        <time>2024-12-02T12:50:31.000Z</time>
      </trkpt>
      <trkpt lat="44.1267" lon="3.20243">
        <ele>627.1</ele>
        <time>2024-12-02T12:50:36.000Z</time>
      </trkpt>
      <trkpt lat="44.12679" lon="3.20242">
        <ele>627.1</ele>
        <time>2024-12-02T12:50:42.000Z</time>
      </trkpt>
      <trkpt lat="44.12688" lon="3.20243">
        <ele>627.5</ele>
        <time>2024-12-02T12:50:49.000Z</time>
      </trkpt>
      <trkpt lat="44.12699" lon="3.2024">
        <ele>628.7</ele>
        <time>2024-12-02T12:50:59.000Z</time>
      </trkpt>
      <trkpt lat="44.12708" lon="3.20244">
        <ele>630.6</ele>
        <time>2024-12-02T12:51:08.000Z</time>
      </trkpt>
      <trkpt lat="44.12717" lon="3.20244">
        <ele>633.2</ele>
        <time>2024-12-02T12:51:19.000Z</time>
      </trkpt>
      <trkpt lat="44.12727" lon="3.20244">
        <ele>635.4</ele>
        <time>2024-12-02T12:51:29.000Z</time>
      </trkpt>
      <trkpt lat="44.12735" lon="3.2025">
        <ele>636.1</ele>
        <time>2024-12-02T12:51:34.000Z</time>
      </trkpt>
      <trkpt lat="44.12744" lon="3.20252">
        <ele>637.8</ele>
        <time>2024-12-02T12:51:45.000Z</time>
      </trkpt>
      <trkpt lat="44.12741" lon="3.20263">
        <ele>640.8</ele>
        <time>2024-12-02T12:52:42.000Z</time>
      </trkpt>
      <trkpt lat="44.12737" lon="3.20275">
        <ele>640.8</ele>
        <time>2024-12-02T12:52:50.000Z</time>
      </trkpt>
      <trkpt lat="44.12747" lon="3.20275">
        <ele>640.7</ele>
        <time>2024-12-02T12:53:04.000Z</time>
      </trkpt>
      <trkpt lat="44.12754" lon="3.20284">
        <ele>640.7</ele>
        <time>2024-12-02T12:53:16.000Z</time>
      </trkpt>
      <trkpt lat="44.12763" lon="3.20291">
        <ele>640.6</ele>
        <time>2024-12-02T12:53:29.000Z</time>
      </trkpt>
      <trkpt lat="44.12773" lon="3.20287">
        <ele>640.7</ele>
        <time>2024-12-02T12:53:34.000Z</time>
      </trkpt>
      <trkpt lat="44.12779" lon="3.20276">
        <ele>641</ele>
        <time>2024-12-02T12:53:38.000Z</time>
      </trkpt>
      <trkpt lat="44.12788" lon="3.20268">
        <ele>641.5</ele>
        <time>2024-12-02T12:53:41.000Z</time>
      </trkpt>
      <trkpt lat="44.12795" lon="3.2026">
        <ele>642</ele>
        <time>2024-12-02T12:53:45.000Z</time>
      </trkpt>
      <trkpt lat="44.12802" lon="3.20249">
        <ele>642.5</ele>
        <time>2024-12-02T12:53:50.000Z</time>
      </trkpt>
      <trkpt lat="44.12804" lon="3.20235">
        <ele>642.4</ele>
        <time>2024-12-02T12:53:54.000Z</time>
      </trkpt>
      <trkpt lat="44.12804" lon="3.20221">
        <ele>642.6</ele>
        <time>2024-12-02T12:53:59.000Z</time>
      </trkpt>
      <trkpt lat="44.12812" lon="3.20213">
        <ele>642.4</ele>
        <time>2024-12-02T12:54:05.000Z</time>
      </trkpt>
      <trkpt lat="44.12815" lon="3.20198">
        <ele>643</ele>
        <time>2024-12-02T12:54:10.000Z</time>
      </trkpt>
      <trkpt lat="44.12823" lon="3.20189">
        <ele>643.2</ele>
        <time>2024-12-02T12:54:18.000Z</time>
      </trkpt>
      <trkpt lat="44.12831" lon="3.20183">
        <ele>644.1</ele>
        <time>2024-12-02T12:54:27.000Z</time>
      </trkpt>
      <trkpt lat="44.12836" lon="3.20172">
        <ele>644.5</ele>
        <time>2024-12-02T12:54:34.000Z</time>
      </trkpt>
      <trkpt lat="44.12841" lon="3.20159">
        <ele>645</ele>
        <time>2024-12-02T12:54:41.000Z</time>
      </trkpt>
      <trkpt lat="44.12845" lon="3.20145">
        <ele>645.5</ele>
        <time>2024-12-02T12:54:47.000Z</time>
      </trkpt>
      <trkpt lat="44.12849" lon="3.20134">
        <ele>645.3</ele>
        <time>2024-12-02T12:54:52.000Z</time>
      </trkpt>
      <trkpt lat="44.12858" lon="3.20137">
        <ele>647.1</ele>
        <time>2024-12-02T12:55:10.000Z</time>
      </trkpt>
      <trkpt lat="44.12868" lon="3.20135">
        <ele>647.9</ele>
        <time>2024-12-02T12:55:20.000Z</time>
      </trkpt>
      <trkpt lat="44.12877" lon="3.20131">
        <ele>648</ele>
        <time>2024-12-02T12:55:27.000Z</time>
      </trkpt>
      <trkpt lat="44.12886" lon="3.20127">
        <ele>648.7</ele>
        <time>2024-12-02T12:56:11.000Z</time>
      </trkpt>
      <trkpt lat="44.12895" lon="3.20124">
        <ele>649.8</ele>
        <time>2024-12-02T12:56:56.000Z</time>
      </trkpt>
      <trkpt lat="44.12903" lon="3.20129">
        <ele>650.1</ele>
        <time>2024-12-02T12:57:04.000Z</time>
      </trkpt>
      <trkpt lat="44.12911" lon="3.20138">
        <ele>650.8</ele>
        <time>2024-12-02T12:57:14.000Z</time>
      </trkpt>
      <trkpt lat="44.12921" lon="3.20141">
        <ele>651.5</ele>
        <time>2024-12-02T12:57:19.000Z</time>
      </trkpt>
      <trkpt lat="44.1293" lon="3.20145">
        <ele>651.9</ele>
        <time>2024-12-02T12:57:24.000Z</time>
      </trkpt>
      <trkpt lat="44.12937" lon="3.20154">
        <ele>652.4</ele>
        <time>2024-12-02T12:57:33.000Z</time>
      </trkpt>
      <trkpt lat="44.12946" lon="3.20154">
        <ele>653.2</ele>
        <time>2024-12-02T12:57:40.000Z</time>
      </trkpt>
      <trkpt lat="44.12955" lon="3.20147">
        <ele>653.5</ele>
        <time>2024-12-02T12:57:44.000Z</time>
      </trkpt>
      <trkpt lat="44.12964" lon="3.20143">
        <ele>653.8</ele>
        <time>2024-12-02T12:57:50.000Z</time>
      </trkpt>
      <trkpt lat="44.12975" lon="3.20141">
        <ele>654</ele>
        <time>2024-12-02T12:57:56.000Z</time>
      </trkpt>
      <trkpt lat="44.12983" lon="3.20137">
        <ele>654.8</ele>
        <time>2024-12-02T12:58:04.000Z</time>
      </trkpt>
      <trkpt lat="44.12992" lon="3.20138">
        <ele>656</ele>
        <time>2024-12-02T12:58:13.000Z</time>
      </trkpt>
      <trkpt lat="44.13001" lon="3.20141">
        <ele>656.5</ele>
        <time>2024-12-02T12:58:20.000Z</time>
      </trkpt>
      <trkpt lat="44.13011" lon="3.2014">
        <ele>656.8</ele>
        <time>2024-12-02T12:58:27.000Z</time>
      </trkpt>
      <trkpt lat="44.13019" lon="3.20133">
        <ele>656.9</ele>
        <time>2024-12-02T12:58:31.000Z</time>
      </trkpt>
      <trkpt lat="44.13025" lon="3.20124">
        <ele>657.1</ele>
        <time>2024-12-02T12:58:38.000Z</time>
      </trkpt>
      <trkpt lat="44.13034" lon="3.20116">
        <ele>656.7</ele>
        <time>2024-12-02T12:58:44.000Z</time>
      </trkpt>
      <trkpt lat="44.13041" lon="3.20108">
        <ele>655.6</ele>
        <time>2024-12-02T12:58:50.000Z</time>
      </trkpt>
      <trkpt lat="44.13047" lon="3.20096">
        <ele>649.8</ele>
        <time>2024-12-02T12:59:54.000Z</time>
      </trkpt>
      <trkpt lat="44.13059" lon="3.20088">
        <ele>648.6</ele>
        <time>2024-12-02T12:59:59.000Z</time>
      </trkpt>
      <trkpt lat="44.13067" lon="3.20093">
        <ele>647.2</ele>
        <time>2024-12-02T13:00:06.000Z</time>
      </trkpt>
      <trkpt lat="44.13074" lon="3.20085">
        <ele>645.8</ele>
        <time>2024-12-02T13:00:14.000Z</time>
      </trkpt>
      <trkpt lat="44.13078" lon="3.20074">
        <ele>645.1</ele>
        <time>2024-12-02T13:00:20.000Z</time>
      </trkpt>
      <trkpt lat="44.13079" lon="3.2006">
        <ele>644.6</ele>
        <time>2024-12-02T13:00:27.000Z</time>
      </trkpt>
      <trkpt lat="44.13071" lon="3.20051">
        <ele>644.4</ele>
        <time>2024-12-02T13:00:33.000Z</time>
      </trkpt>
      <trkpt lat="44.13064" lon="3.20043">
        <ele>644.3</ele>
        <time>2024-12-02T13:00:39.000Z</time>
      </trkpt>
      <trkpt lat="44.13059" lon="3.20031">
        <ele>644.4</ele>
        <time>2024-12-02T13:00:55.000Z</time>
      </trkpt>
      <trkpt lat="44.13055" lon="3.2002">
        <ele>644.9</ele>
        <time>2024-12-02T13:01:02.000Z</time>
      </trkpt>
      <trkpt lat="44.13052" lon="3.20008">
        <ele>645.8</ele>
        <time>2024-12-02T13:01:09.000Z</time>
      </trkpt>
      <trkpt lat="44.13046" lon="3.19996">
        <ele>646.2</ele>
        <time>2024-12-02T13:01:17.000Z</time>
      </trkpt>
      <trkpt lat="44.13042" lon="3.19984">
        <ele>646.2</ele>
        <time>2024-12-02T13:01:22.000Z</time>
      </trkpt>
      <trkpt lat="44.13039" lon="3.19971">
        <ele>646</ele>
        <time>2024-12-02T13:01:26.000Z</time>
      </trkpt>
      <trkpt lat="44.13031" lon="3.19961">
        <ele>645.4</ele>
        <time>2024-12-02T13:01:30.000Z</time>
      </trkpt>
      <trkpt lat="44.13027" lon="3.19947">
        <ele>644.4</ele>
        <time>2024-12-02T13:01:34.000Z</time>
      </trkpt>
      <trkpt lat="44.1303" lon="3.19934">
        <ele>642.5</ele>
        <time>2024-12-02T13:01:39.000Z</time>
      </trkpt>
      <trkpt lat="44.13025" lon="3.19921">
        <ele>639.7</ele>
        <time>2024-12-02T13:01:46.000Z</time>
      </trkpt>
      <trkpt lat="44.1302" lon="3.1991">
        <ele>635.1</ele>
        <time>2024-12-02T13:01:56.000Z</time>
      </trkpt>
      <trkpt lat="44.13017" lon="3.19893">
        <ele>632.7</ele>
        <time>2024-12-02T13:02:01.000Z</time>
      </trkpt>
      <trkpt lat="44.13011" lon="3.19882">
        <ele>631.2</ele>
        <time>2024-12-02T13:02:04.000Z</time>
      </trkpt>
      <trkpt lat="44.13011" lon="3.19869">
        <ele>629.7</ele>
        <time>2024-12-02T13:02:07.000Z</time>
      </trkpt>
      <trkpt lat="44.13001" lon="3.19866">
        <ele>627.7</ele>
        <time>2024-12-02T13:02:11.000Z</time>
      </trkpt>
      <trkpt lat="44.12991" lon="3.19866">
        <ele>625.5</ele>
        <time>2024-12-02T13:02:15.000Z</time>
      </trkpt>
      <trkpt lat="44.12981" lon="3.19866">
        <ele>622.9</ele>
        <time>2024-12-02T13:02:20.000Z</time>
      </trkpt>
      <trkpt lat="44.12971" lon="3.19863">
        <ele>620.6</ele>
        <time>2024-12-02T13:02:25.000Z</time>
      </trkpt>
      <trkpt lat="44.12963" lon="3.19858">
        <ele>618.9</ele>
        <time>2024-12-02T13:02:30.000Z</time>
      </trkpt>
      <trkpt lat="44.12954" lon="3.19852">
        <ele>617.9</ele>
        <time>2024-12-02T13:02:34.000Z</time>
      </trkpt>
      <trkpt lat="44.12946" lon="3.19844">
        <ele>616.8</ele>
        <time>2024-12-02T13:02:42.000Z</time>
      </trkpt>
      <trkpt lat="44.12939" lon="3.19834">
        <ele>616.5</ele>
        <time>2024-12-02T13:02:51.000Z</time>
      </trkpt>
      <trkpt lat="44.12934" lon="3.19822">
        <ele>616.4</ele>
        <time>2024-12-02T13:02:57.000Z</time>
      </trkpt>
      <trkpt lat="44.12924" lon="3.19822">
        <ele>616.3</ele>
        <time>2024-12-02T13:03:01.000Z</time>
      </trkpt>
      <trkpt lat="44.12914" lon="3.19815">
        <ele>615.8</ele>
        <time>2024-12-02T13:03:05.000Z</time>
      </trkpt>
      <trkpt lat="44.12905" lon="3.19807">
        <ele>614.5</ele>
        <time>2024-12-02T13:03:20.000Z</time>
      </trkpt>
      <trkpt lat="44.129" lon="3.19795">
        <ele>614.9</ele>
        <time>2024-12-02T13:03:29.000Z</time>
      </trkpt>
      <trkpt lat="44.12893" lon="3.19785">
        <ele>615.2</ele>
        <time>2024-12-02T13:03:36.000Z</time>
      </trkpt>
      <trkpt lat="44.12889" lon="3.19771">
        <ele>615.2</ele>
        <time>2024-12-02T13:04:22.000Z</time>
      </trkpt>
      <trkpt lat="44.12882" lon="3.19764">
        <ele>615.5</ele>
        <time>2024-12-02T13:04:27.000Z</time>
      </trkpt>
      <trkpt lat="44.12874" lon="3.19757">
        <ele>615.7</ele>
        <time>2024-12-02T13:04:42.000Z</time>
      </trkpt>
      <trkpt lat="44.12868" lon="3.19746">
        <ele>616.3</ele>
        <time>2024-12-02T13:04:51.000Z</time>
      </trkpt>
      <trkpt lat="44.12861" lon="3.19737">
        <ele>616.7</ele>
        <time>2024-12-02T13:04:59.000Z</time>
      </trkpt>
      <trkpt lat="44.1285" lon="3.19721">
        <ele>618.7</ele>
        <time>2024-12-02T13:06:18.000Z</time>
      </trkpt>
      <trkpt lat="44.12847" lon="3.19709">
        <ele>619.4</ele>
        <time>2024-12-02T13:06:34.000Z</time>
      </trkpt>
      <trkpt lat="44.1284" lon="3.197">
        <ele>622.2</ele>
        <time>2024-12-02T13:06:49.000Z</time>
      </trkpt>
      <trkpt lat="44.12836" lon="3.19689">
        <ele>623.6</ele>
        <time>2024-12-02T13:07:06.000Z</time>
      </trkpt>
      <trkpt lat="44.12845" lon="3.19688">
        <ele>623.3</ele>
        <time>2024-12-02T13:07:22.000Z</time>
      </trkpt>
      <trkpt lat="44.12855" lon="3.19688">
        <ele>623.1</ele>
        <time>2024-12-02T13:07:33.000Z</time>
      </trkpt>
      <trkpt lat="44.12863" lon="3.19692">
        <ele>622.9</ele>
        <time>2024-12-02T13:07:42.000Z</time>
      </trkpt>
      <trkpt lat="44.12872" lon="3.19687">
        <ele>622.7</ele>
        <time>2024-12-02T13:08:07.000Z</time>
      </trkpt>
      <trkpt lat="44.12877" lon="3.19692">
        <ele>621.5</ele>
        <time>2024-12-02T13:17:00.000Z</time>
      </trkpt>
      <trkpt lat="44.12887" lon="3.19688">
        <ele>622</ele>
        <time>2024-12-02T13:17:18.000Z</time>
      </trkpt>
      <trkpt lat="44.12894" lon="3.19677">
        <ele>622.9</ele>
        <time>2024-12-02T13:17:28.000Z</time>
      </trkpt>
      <trkpt lat="44.12902" lon="3.19672">
        <ele>623.4</ele>
        <time>2024-12-02T13:17:40.000Z</time>
      </trkpt>
      <trkpt lat="44.12908" lon="3.19661">
        <ele>624.1</ele>
        <time>2024-12-02T13:17:52.000Z</time>
      </trkpt>
      <trkpt lat="44.12917" lon="3.19656">
        <ele>624.3</ele>
        <time>2024-12-02T13:18:04.000Z</time>
      </trkpt>
      <trkpt lat="44.12927" lon="3.19648">
        <ele>623.9</ele>
        <time>2024-12-02T13:18:08.000Z</time>
      </trkpt>
      <trkpt lat="44.12935" lon="3.19642">
        <ele>623</ele>
        <time>2024-12-02T13:18:13.000Z</time>
      </trkpt>
      <trkpt lat="44.12946" lon="3.19639">
        <ele>621.5</ele>
        <time>2024-12-02T13:18:18.000Z</time>
      </trkpt>
      <trkpt lat="44.12955" lon="3.19635">
        <ele>619.7</ele>
        <time>2024-12-02T13:18:23.000Z</time>
      </trkpt>
      <trkpt lat="44.12964" lon="3.19634">
        <ele>616.4</ele>
        <time>2024-12-02T13:18:30.000Z</time>
      </trkpt>
      <trkpt lat="44.12973" lon="3.19629">
        <ele>613.9</ele>
        <time>2024-12-02T13:18:38.000Z</time>
      </trkpt>
      <trkpt lat="44.12984" lon="3.19631">
        <ele>612.5</ele>
        <time>2024-12-02T13:18:46.000Z</time>
      </trkpt>
      <trkpt lat="44.12993" lon="3.19625">
        <ele>611.7</ele>
        <time>2024-12-02T13:18:53.000Z</time>
      </trkpt>
      <trkpt lat="44.13001" lon="3.19618">
        <ele>611.4</ele>
        <time>2024-12-02T13:18:59.000Z</time>
      </trkpt>
      <trkpt lat="44.13011" lon="3.19613">
        <ele>611.1</ele>
        <time>2024-12-02T13:19:32.000Z</time>
      </trkpt>
      <trkpt lat="44.13005" lon="3.19603">
        <ele>610.8</ele>
        <time>2024-12-02T13:20:03.000Z</time>
      </trkpt>
      <trkpt lat="44.12996" lon="3.19599">
        <ele>610.7</ele>
        <time>2024-12-02T13:20:06.000Z</time>
      </trkpt>
      <trkpt lat="44.12987" lon="3.19592">
        <ele>608.7</ele>
        <time>2024-12-02T13:20:14.000Z</time>
      </trkpt>
      <trkpt lat="44.12977" lon="3.19585">
        <ele>607.1</ele>
        <time>2024-12-02T13:20:19.000Z</time>
      </trkpt>
      <trkpt lat="44.1297" lon="3.19575">
        <ele>605.9</ele>
        <time>2024-12-02T13:20:24.000Z</time>
      </trkpt>
      <trkpt lat="44.12961" lon="3.19567">
        <ele>605</ele>
        <time>2024-12-02T13:20:27.000Z</time>
      </trkpt>
      <trkpt lat="44.12952" lon="3.19557">
        <ele>603.8</ele>
        <time>2024-12-02T13:20:30.000Z</time>
      </trkpt>
      <trkpt lat="44.12942" lon="3.19563">
        <ele>602.6</ele>
        <time>2024-12-02T13:20:33.000Z</time>
      </trkpt>
      <trkpt lat="44.12934" lon="3.19572">
        <ele>601.7</ele>
        <time>2024-12-02T13:20:35.000Z</time>
      </trkpt>
      <trkpt lat="44.12924" lon="3.19584">
        <ele>600.3</ele>
        <time>2024-12-02T13:20:38.000Z</time>
      </trkpt>
      <trkpt lat="44.12913" lon="3.19592">
        <ele>599.3</ele>
        <time>2024-12-02T13:20:41.000Z</time>
      </trkpt>
      <trkpt lat="44.12903" lon="3.19596">
        <ele>598.2</ele>
        <time>2024-12-02T13:20:45.000Z</time>
      </trkpt>
      <trkpt lat="44.12894" lon="3.19601">
        <ele>597.3</ele>
        <time>2024-12-02T13:20:48.000Z</time>
      </trkpt>
      <trkpt lat="44.12885" lon="3.19595">
        <ele>595.1</ele>
        <time>2024-12-02T13:20:52.000Z</time>
      </trkpt>
      <trkpt lat="44.12878" lon="3.19586">
        <ele>591.9</ele>
        <time>2024-12-02T13:20:57.000Z</time>
      </trkpt>
      <trkpt lat="44.12883" lon="3.19575">
        <ele>586.5</ele>
        <time>2024-12-02T13:21:07.000Z</time>
      </trkpt>
      <trkpt lat="44.12873" lon="3.19569">
        <ele>584.2</ele>
        <time>2024-12-02T13:21:12.000Z</time>
      </trkpt>
      <trkpt lat="44.12861" lon="3.19564">
        <ele>582.4</ele>
        <time>2024-12-02T13:21:15.000Z</time>
      </trkpt>
      <trkpt lat="44.1285" lon="3.19557">
        <ele>580.2</ele>
        <time>2024-12-02T13:21:18.000Z</time>
      </trkpt>
      <trkpt lat="44.1284" lon="3.19555">
        <ele>578</ele>
        <time>2024-12-02T13:21:21.000Z</time>
      </trkpt>
      <trkpt lat="44.1283" lon="3.19553">
        <ele>575.5</ele>
        <time>2024-12-02T13:21:24.000Z</time>
      </trkpt>
      <trkpt lat="44.1282" lon="3.19552">
        <ele>573</ele>
        <time>2024-12-02T13:21:27.000Z</time>
      </trkpt>
      <trkpt lat="44.1281" lon="3.19549">
        <ele>570.1</ele>
        <time>2024-12-02T13:21:30.000Z</time>
      </trkpt>
      <trkpt lat="44.12799" lon="3.19546">
        <ele>567.3</ele>
        <time>2024-12-02T13:21:33.000Z</time>
      </trkpt>
      <trkpt lat="44.1279" lon="3.19542">
        <ele>564.2</ele>
        <time>2024-12-02T13:21:36.000Z</time>
      </trkpt>
      <trkpt lat="44.12784" lon="3.19529">
        <ele>558.8</ele>
        <time>2024-12-02T13:21:41.000Z</time>
      </trkpt>
      <trkpt lat="44.12777" lon="3.19518">
        <ele>554.7</ele>
        <time>2024-12-02T13:21:45.000Z</time>
      </trkpt>
      <trkpt lat="44.12763" lon="3.19517">
        <ele>551.9</ele>
        <time>2024-12-02T13:21:48.000Z</time>
      </trkpt>
      <trkpt lat="44.12753" lon="3.19511">
        <ele>548.9</ele>
        <time>2024-12-02T13:21:51.000Z</time>
      </trkpt>
      <trkpt lat="44.1274" lon="3.19505">
        <ele>545.6</ele>
        <time>2024-12-02T13:21:54.000Z</time>
      </trkpt>
      <trkpt lat="44.1273" lon="3.19501">
        <ele>542.2</ele>
        <time>2024-12-02T13:21:57.000Z</time>
      </trkpt>
      <trkpt lat="44.12721" lon="3.19495">
        <ele>538.5</ele>
        <time>2024-12-02T13:22:00.000Z</time>
      </trkpt>
      <trkpt lat="44.12712" lon="3.19492">
        <ele>536</ele>
        <time>2024-12-02T13:22:02.000Z</time>
      </trkpt>
      <trkpt lat="44.12702" lon="3.19485">
        <ele>532.5</ele>
        <time>2024-12-02T13:22:05.000Z</time>
      </trkpt>
      <trkpt lat="44.12694" lon="3.19478">
        <ele>529</ele>
        <time>2024-12-02T13:22:08.000Z</time>
      </trkpt>
      <trkpt lat="44.12685" lon="3.19472">
        <ele>524.2</ele>
        <time>2024-12-02T13:22:12.000Z</time>
      </trkpt>
      <trkpt lat="44.12676" lon="3.19469">
        <ele>520.9</ele>
        <time>2024-12-02T13:22:15.000Z</time>
      </trkpt>
      <trkpt lat="44.12664" lon="3.19472">
        <ele>517.8</ele>
        <time>2024-12-02T13:22:18.000Z</time>
      </trkpt>
      <trkpt lat="44.12654" lon="3.19482">
        <ele>515.7</ele>
        <time>2024-12-02T13:22:20.000Z</time>
      </trkpt>
      <trkpt lat="44.12645" lon="3.19495">
        <ele>513.5</ele>
        <time>2024-12-02T13:22:22.000Z</time>
      </trkpt>
      <trkpt lat="44.12635" lon="3.19498">
        <ele>511.5</ele>
        <time>2024-12-02T13:22:24.000Z</time>
      </trkpt>
      <trkpt lat="44.12625" lon="3.19504">
        <ele>508.6</ele>
        <time>2024-12-02T13:22:27.000Z</time>
      </trkpt>
      <trkpt lat="44.12616" lon="3.19504">
        <ele>506</ele>
        <time>2024-12-02T13:22:30.000Z</time>
      </trkpt>
      <trkpt lat="44.12603" lon="3.19505">
        <ele>503.6</ele>
        <time>2024-12-02T13:22:33.000Z</time>
      </trkpt>
      <trkpt lat="44.12595" lon="3.19511">
        <ele>501.9</ele>
        <time>2024-12-02T13:22:35.000Z</time>
      </trkpt>
      <trkpt lat="44.12585" lon="3.19518">
        <ele>500.2</ele>
        <time>2024-12-02T13:22:37.000Z</time>
      </trkpt>
      <trkpt lat="44.12576" lon="3.19524">
        <ele>498.6</ele>
        <time>2024-12-02T13:22:39.000Z</time>
      </trkpt>
      <trkpt lat="44.12567" lon="3.19529">
        <ele>496.6</ele>
        <time>2024-12-02T13:22:42.000Z</time>
      </trkpt>
      <trkpt lat="44.12557" lon="3.19533">
        <ele>494.5</ele>
        <time>2024-12-02T13:22:46.000Z</time>
      </trkpt>
      <trkpt lat="44.12554" lon="3.19548">
        <ele>493</ele>
        <time>2024-12-02T13:22:50.000Z</time>
      </trkpt>
      <trkpt lat="44.12551" lon="3.19563">
        <ele>491.7</ele>
        <time>2024-12-02T13:22:54.000Z</time>
      </trkpt>
      <trkpt lat="44.12547" lon="3.19575">
        <ele>491</ele>
        <time>2024-12-02T13:22:57.000Z</time>
      </trkpt>
      <trkpt lat="44.12541" lon="3.19589">
        <ele>490.4</ele>
        <time>2024-12-02T13:23:00.000Z</time>
      </trkpt>
      <trkpt lat="44.12534" lon="3.19599">
        <ele>490</ele>
        <time>2024-12-02T13:23:02.000Z</time>
      </trkpt>
      <trkpt lat="44.12527" lon="3.19607">
        <ele>489.4</ele>
        <time>2024-12-02T13:23:04.000Z</time>
      </trkpt>
      <trkpt lat="44.1252" lon="3.19623">
        <ele>488.2</ele>
        <time>2024-12-02T13:23:07.000Z</time>
      </trkpt>
      <trkpt lat="44.12515" lon="3.19633">
        <ele>487.2</ele>
        <time>2024-12-02T13:23:09.000Z</time>
      </trkpt>
      <trkpt lat="44.12504" lon="3.19635">
        <ele>485.5</ele>
        <time>2024-12-02T13:23:12.000Z</time>
      </trkpt>
      <trkpt lat="44.12492" lon="3.1964">
        <ele>483.8</ele>
        <time>2024-12-02T13:23:15.000Z</time>
      </trkpt>
      <trkpt lat="44.12484" lon="3.19648">
        <ele>482.2</ele>
        <time>2024-12-02T13:23:18.000Z</time>
      </trkpt>
      <trkpt lat="44.12475" lon="3.19657">
        <ele>480.8</ele>
        <time>2024-12-02T13:23:21.000Z</time>
      </trkpt>
      <trkpt lat="44.12463" lon="3.19666">
        <ele>479.5</ele>
        <time>2024-12-02T13:23:24.000Z</time>
      </trkpt>
      <trkpt lat="44.12455" lon="3.19674">
        <ele>478.6</ele>
        <time>2024-12-02T13:23:26.000Z</time>
      </trkpt>
      <trkpt lat="44.12445" lon="3.19677">
        <ele>477.4</ele>
        <time>2024-12-02T13:23:28.000Z</time>
      </trkpt>
      <trkpt lat="44.12433" lon="3.19681">
        <ele>475.3</ele>
        <time>2024-12-02T13:23:31.000Z</time>
      </trkpt>
      <trkpt lat="44.12424" lon="3.19678">
        <ele>473.8</ele>
        <time>2024-12-02T13:23:33.000Z</time>
      </trkpt>
      <trkpt lat="44.12412" lon="3.1968">
        <ele>472.3</ele>
        <time>2024-12-02T13:23:35.000Z</time>
      </trkpt>
      <trkpt lat="44.12401" lon="3.19687">
        <ele>470.8</ele>
        <time>2024-12-02T13:23:37.000Z</time>
      </trkpt>
      <trkpt lat="44.12389" lon="3.19696">
        <ele>469.3</ele>
        <time>2024-12-02T13:23:39.000Z</time>
      </trkpt>
      <trkpt lat="44.12378" lon="3.197">
        <ele>468</ele>
        <time>2024-12-02T13:23:41.000Z</time>
      </trkpt>
      <trkpt lat="44.12367" lon="3.19705">
        <ele>466</ele>
        <time>2024-12-02T13:23:44.000Z</time>
      </trkpt>
      <trkpt lat="44.1236" lon="3.19713">
        <ele>464</ele>
        <time>2024-12-02T13:23:47.000Z</time>
      </trkpt>
      <trkpt lat="44.12365" lon="3.19725">
        <ele>461.9</ele>
        <time>2024-12-02T13:23:51.000Z</time>
      </trkpt>
      <trkpt lat="44.12363" lon="3.1974">
        <ele>459.7</ele>
        <time>2024-12-02T13:23:55.000Z</time>
      </trkpt>
      <trkpt lat="44.12367" lon="3.19756">
        <ele>457.8</ele>
        <time>2024-12-02T13:23:59.000Z</time>
      </trkpt>
      <trkpt lat="44.12363" lon="3.19773">
        <ele>455.8</ele>
        <time>2024-12-02T13:24:02.000Z</time>
      </trkpt>
      <trkpt lat="44.12369" lon="3.19784">
        <ele>454.1</ele>
        <time>2024-12-02T13:24:05.000Z</time>
      </trkpt>
      <trkpt lat="44.12377" lon="3.19792">
        <ele>452.8</ele>
        <time>2024-12-02T13:24:07.000Z</time>
      </trkpt>
      <trkpt lat="44.12385" lon="3.19805">
        <ele>450.8</ele>
        <time>2024-12-02T13:24:10.000Z</time>
      </trkpt>
      <trkpt lat="44.12395" lon="3.19817">
        <ele>448.2</ele>
        <time>2024-12-02T13:24:13.000Z</time>
      </trkpt>
      <trkpt lat="44.12405" lon="3.19828">
        <ele>422.5</ele>
        <time>2024-12-02T13:25:58.000Z</time>
      </trkpt>
      <trkpt lat="44.12394" lon="3.1983">
        <ele>421</ele>
        <time>2024-12-02T13:26:01.000Z</time>
      </trkpt>
      <trkpt lat="44.12383" lon="3.19832">
        <ele>419.3</ele>
        <time>2024-12-02T13:26:04.000Z</time>
      </trkpt>
      <trkpt lat="44.12373" lon="3.19827">
        <ele>417.3</ele>
        <time>2024-12-02T13:26:07.000Z</time>
      </trkpt>
      <trkpt lat="44.1236" lon="3.19822">
        <ele>414.7</ele>
        <time>2024-12-02T13:26:10.000Z</time>
      </trkpt>
      <trkpt lat="44.12351" lon="3.19821">
        <ele>412.9</ele>
        <time>2024-12-02T13:26:12.000Z</time>
      </trkpt>
      <trkpt lat="44.12339" lon="3.19834">
        <ele>409.5</ele>
        <time>2024-12-02T13:26:16.000Z</time>
      </trkpt>
      <trkpt lat="44.1233" lon="3.19836">
        <ele>407.6</ele>
        <time>2024-12-02T13:26:18.000Z</time>
      </trkpt>
      <trkpt lat="44.12319" lon="3.19834">
        <ele>405.1</ele>
        <time>2024-12-02T13:26:21.000Z</time>
      </trkpt>
      <trkpt lat="44.12306" lon="3.19833">
        <ele>403.3</ele>
        <time>2024-12-02T13:26:23.000Z</time>
      </trkpt>
      <trkpt lat="44.12293" lon="3.19833">
        <ele>401.4</ele>
        <time>2024-12-02T13:26:25.000Z</time>
      </trkpt>
      <trkpt lat="44.12279" lon="3.19837">
        <ele>399</ele>
        <time>2024-12-02T13:26:27.000Z</time>
      </trkpt>
      <trkpt lat="44.12267" lon="3.19841">
        <ele>396.9</ele>
        <time>2024-12-02T13:26:29.000Z</time>
      </trkpt>
    </trkseg>
  </trk>
</gpx>